Terminal Aerodrome Forecast
Issued by NWS

Home | Current Version | Previous Version | Text Only | Print | Product List | Glossary On
Versions: 1 2 3 4 5 6 7 8 9 10 11 12 13 14 15 16 17 18 19 20 21 22 23 24 25 26
000
FTUS43 KLOT 242100 AAB
TAFMDW
TAF AMD
KMDW 242159Z 2422/2518 27008KT P6SM -RA FEW009 OVC025
     FM242300 28011KT P6SM VCSH OVC009
     FM250300 26011G16KT P6SM OVC015
     FM251300 23011G17KT P6SM BKN025=

USA.gov is the U.S. government's official web portal to all federal, state and local government web resources and services.